createdAt,value
2018-07-25T00:00:13.245Z,65.07
2018-07-25T00:02:43.381Z,65.27
2018-07-25T00:05:14.732Z,65.53
2018-07-25T00:07:45.380Z,65.07
2018-07-25T00:10:15.691Z,65.23
2018-07-25T00:12:45.672Z,65.88
2018-07-25T00:15:15.821Z,66.21
2018-07-25T00:17:46.823Z,65.55
2018-07-25T00:20:16.908Z,65.83
2018-07-25T00:22:47.276Z,66.52
2018-07-25T00:25:17.534Z,66.81
2018-07-25T00:27:47.735Z,65.67
2018-07-25T00:30:18.551Z,66.56
2018-07-25T00:32:48.654Z,66.55
2018-07-25T00:35:18.781Z,65.97
2018-07-25T00:37:48.957Z,66.61
2018-07-25T00:40:19.329Z,65.96
2018-07-25T00:42:50.175Z,66.89
2018-07-25T00:45:21.014Z,66.77
2018-07-25T00:47:51.522Z,66.95
2018-07-25T00:50:21.696Z,66.50
2018-07-25T00:52:52.659Z,66.89
2018-07-25T00:55:22.772Z,66.48
2018-07-25T00:57:53.054Z,67.16
2018-07-25T01:00:23.641Z,67.52
2018-07-25T01:02:53.906Z,67.65
2018-07-25T01:05:24.230Z,68.59
2018-07-25T01:07:54.765Z,68.09
2018-07-25T01:10:25.198Z,68.91
2018-07-25T01:12:55.818Z,67.69
2018-07-25T01:15:26.269Z,68.22
2018-07-25T01:17:57.620Z,67.82
2018-07-25T01:20:28.435Z,67.74
2018-07-25T01:22:59.114Z,67.92
2018-07-25T01:25:29.781Z,69.08
2018-07-25T01:28:00.291Z,69.62
2018-07-25T01:30:30.346Z,69.60
2018-07-25T01:33:00.517Z,69.49
2018-07-25T01:35:30.639Z,70.00
2018-07-25T01:38:00.813Z,69.42
2018-07-25T01:40:30.937Z,70.41
2018-07-25T01:43:00.979Z,69.73
2018-07-25T01:45:31.042Z,70.31
2018-07-25T01:48:01.123Z,70.33
2018-07-25T01:50:31.154Z,69.75
2018-07-25T01:53:01.372Z,68.54
2018-07-25T01:55:31.698Z,69.55
2018-07-25T01:58:01.853Z,70.05
2018-07-25T02:00:31.976Z,69.81
2018-07-25T02:03:02.149Z,69.14
2018-07-25T02:05:32.371Z,68.68
2018-07-25T02:08:02.385Z,68.98
2018-07-25T02:10:36.082Z,69.86
2018-07-25T02:13:06.044Z,70.50
2018-07-25T02:15:36.635Z,69.48
2018-07-25T02:18:07.165Z,68.69
2018-07-25T02:20:37.517Z,68.82
2018-07-25T02:23:07.515Z,69.03
2018-07-25T02:25:37.622Z,69.05
2018-07-25T02:28:10.212Z,69.50
2018-07-25T02:30:40.457Z,70.24
2018-07-25T02:33:10.479Z,70.05
2018-07-25T02:35:40.564Z,71.33
2018-07-25T02:38:10.706Z,71.45
2018-07-25T02:40:40.901Z,70.51
2018-07-25T02:43:11.055Z,69.28
2018-07-25T02:45:46.366Z,69.27
2018-07-25T02:48:17.295Z,69.51
2018-07-25T02:50:47.122Z,67.78
2018-07-25T02:53:17.127Z,67.93
2018-07-25T02:55:47.140Z,67.66
2018-07-25T02:58:17.159Z,68.10
2018-07-25T03:00:48.300Z,68.22
2018-07-25T03:03:18.752Z,68.29
2018-07-25T03:05:48.876Z,69.49
2018-07-25T03:08:19.068Z,69.00
2018-07-25T03:10:53.790Z,69.00
2018-07-25T03:13:24.323Z,70.42
2018-07-25T03:16:04.275Z,70.15
2018-07-25T03:18:34.492Z,70.34
2018-07-25T03:21:04.928Z,70.21
2018-07-25T03:23:35.896Z,69.79
2018-07-25T03:26:05.977Z,69.40
2018-07-25T03:28:40.420Z,70.24
2018-07-25T03:31:10.427Z,70.27
2018-07-25T03:33:40.436Z,69.84
2018-07-25T03:36:10.413Z,70.52
2018-07-25T03:38:41.607Z,69.84
2018-07-25T03:41:11.827Z,70.06
2018-07-25T03:43:41.949Z,70.47
2018-07-25T03:46:13.369Z,69.62
2018-07-25T03:48:43.477Z,70.12
2018-07-25T03:51:13.572Z,70.97
2018-07-25T03:53:43.510Z,70.84
2018-07-25T03:56:13.543Z,71.55
2018-07-25T03:58:43.617Z,72.22
2018-07-25T04:01:17.933Z,71.51
2018-07-25T04:03:47.957Z,71.57
2018-07-25T04:06:19.553Z,70.97
2018-07-25T04:08:52.435Z,70.63
2018-07-25T04:11:24.126Z,70.12
2018-07-25T04:13:54.148Z,71.29
2018-07-25T04:16:23.838Z,70.57
2018-07-25T04:18:53.936Z,71.60
2018-07-25T04:21:27.025Z,71.49
2018-07-25T04:23:57.045Z,70.17
2018-07-25T04:26:27.061Z,69.64
2018-07-25T04:29:00.730Z,70.35
2018-07-25T04:31:31.552Z,70.40
2018-07-25T04:34:01.444Z,69.33
2018-07-25T04:36:32.680Z,70.95
2018-07-25T04:39:05.492Z,70.32
2018-07-25T04:41:38.255Z,70.31
2018-07-25T04:44:08.289Z,69.27
2018-07-25T04:46:41.650Z,69.48
2018-07-25T04:49:13.893Z,70.09
2018-07-25T04:51:51.258Z,69.39
2018-07-25T04:54:21.317Z,69.54
2018-07-25T04:56:52.351Z,70.35
2018-07-25T04:59:24.773Z,70.53
2018-07-25T05:01:54.934Z,71.00
2018-07-25T05:04:24.956Z,69.88
2018-07-25T05:06:54.993Z,70.70
2018-07-25T05:09:25.121Z,70.82
2018-07-25T05:11:55.288Z,69.70
2018-07-25T05:14:25.369Z,70.17
2018-07-25T05:16:58.270Z,69.08
2018-07-25T05:19:28.688Z,67.98
2018-07-25T05:21:58.808Z,66.94
2018-07-25T05:24:29.857Z,66.71
2018-07-25T05:26:59.441Z,66.83
2018-07-25T05:29:31.528Z,65.52
2018-07-25T05:32:05.327Z,65.68
2018-07-25T05:34:37.342Z,64.71
2018-07-25T05:37:10.228Z,64.79
2018-07-25T05:39:40.589Z,63.89
2018-07-25T05:42:11.221Z,63.27
2018-07-25T05:44:41.450Z,62.59
2018-07-25T05:47:13.111Z,62.39
2018-07-25T05:49:44.584Z,62.05
2018-07-25T05:52:14.720Z,65.92
2018-07-25T05:54:46.796Z,67.29
2018-07-25T05:57:17.481Z,67.78
2018-07-25T05:59:48.389Z,67.05
2018-07-25T06:02:19.538Z,66.04
2018-07-25T06:04:49.867Z,65.71
2018-07-25T06:07:19.815Z,66.56
2018-07-25T06:09:49.958Z,65.95
2018-07-25T06:12:20.192Z,66.39
2018-07-25T06:14:50.946Z,63.64
2018-07-25T06:17:21.269Z,63.29
2018-07-25T06:19:51.061Z,62.82
2018-07-25T06:22:21.310Z,63.46
2018-07-25T06:27:23.968Z,59.46
2018-07-25T06:29:54.234Z,58.91
2018-07-25T06:32:24.459Z,58.72
2018-07-25T06:34:54.863Z,57.55
2018-07-25T06:37:25.608Z,56.40
2018-07-25T06:39:55.643Z,56.60
2018-07-25T06:42:27.108Z,53.50
2018-07-25T06:44:57.353Z,52.50
2018-07-25T06:47:27.513Z,51.24
2018-07-25T06:50:01.320Z,50.73
2018-07-25T06:52:31.597Z,49.43
2018-07-25T06:55:10.232Z,49.71
2018-07-25T06:57:40.715Z,49.08
2018-07-25T07:00:18.463Z,48.87
2018-07-25T07:02:53.822Z,47.56
2018-07-25T07:05:27.982Z,46.46
2018-07-25T07:07:59.480Z,47.03
2018-07-25T07:10:33.979Z,45.34
2018-07-25T07:13:04.456Z,46.37
2018-07-25T07:15:34.610Z,47.13
2018-07-25T07:18:06.249Z,45.81
2018-07-25T07:20:37.649Z,44.93
2018-07-25T07:23:09.438Z,41.63
2018-07-25T07:25:43.401Z,40.15
2018-07-25T07:28:13.556Z,39.65
2018-07-25T07:33:20.451Z,41.92
2018-07-25T07:35:58.044Z,41.97
2018-07-25T07:38:30.351Z,40.96
2018-07-25T07:41:03.220Z,38.74
2018-07-25T07:43:36.171Z,37.35
2018-07-25T07:46:06.972Z,37.15
2018-07-25T07:48:40.197Z,34.95
2018-07-25T07:51:11.659Z,36.38
2018-07-25T07:53:44.428Z,33.42
2018-07-25T07:56:18.308Z,34.93
2018-07-25T07:58:49.663Z,34.39
2018-07-25T08:01:22.982Z,33.36
2018-07-25T08:03:55.357Z,35.45
2018-07-25T08:06:26.674Z,37.68
2018-07-25T08:08:57.594Z,33.94
2018-07-25T08:11:28.385Z,35.45
2018-07-25T08:14:07.274Z,36.66
2018-07-25T08:16:42.553Z,38.36
2018-07-25T08:19:15.850Z,38.42
2018-07-25T08:21:46.638Z,35.88
2018-07-25T08:24:18.203Z,37.29
2018-07-25T08:26:48.911Z,37.96
2018-07-25T08:29:20.218Z,36.80
2018-07-25T08:31:50.502Z,37.17
2018-07-25T08:34:22.810Z,37.35
2018-07-25T08:36:53.112Z,38.55
2018-07-25T08:39:23.476Z,39.86
2018-07-25T08:41:54.307Z,39.63
2018-07-25T08:44:24.516Z,41.55
2018-07-25T08:46:58.684Z,42.59
2018-07-25T08:49:28.849Z,42.59
2018-07-25T08:51:59.065Z,42.90
2018-07-25T08:54:31.680Z,43.19
2018-07-25T08:57:01.706Z,43.41
2018-07-25T08:59:32.148Z,43.28
2018-07-25T09:02:03.154Z,43.03
2018-07-25T09:04:35.635Z,42.80
2018-07-25T09:07:09.458Z,41.80
2018-07-25T09:09:40.659Z,41.90
2018-07-25T09:12:15.863Z,41.94
2018-07-25T09:14:46.880Z,43.81
2018-07-25T09:17:17.623Z,43.64
2018-07-25T09:19:48.524Z,43.04
2018-07-25T09:22:20.444Z,42.09
2018-07-25T09:24:51.809Z,41.82
2018-07-25T09:27:23.328Z,42.59
2018-07-25T09:29:54.762Z,42.85
2018-07-25T09:32:26.598Z,42.95
2018-07-25T09:34:58.554Z,42.10
2018-07-25T09:37:31.069Z,44.00
2018-07-25T09:40:03.710Z,42.48
2018-07-25T09:42:34.924Z,41.66
2018-07-25T09:45:08.269Z,41.17
2018-07-25T09:47:39.426Z,42.37
2018-07-25T09:50:10.520Z,41.36
2018-07-25T09:52:41.903Z,41.79
2018-07-25T09:55:12.457Z,40.39
2018-07-25T09:57:42.878Z,41.25
2018-07-25T10:00:14.451Z,41.06
2018-07-25T10:02:45.358Z,41.03
2018-07-25T10:05:15.544Z,41.27
2018-07-25T10:07:46.830Z,40.77
2018-07-25T10:10:19.145Z,40.80
2018-07-25T10:12:52.938Z,41.25
2018-07-25T10:15:23.363Z,40.42
2018-07-25T10:17:54.075Z,41.17
2018-07-25T10:20:24.348Z,40.83
2018-07-25T10:22:55.061Z,41.86
2018-07-25T10:25:25.356Z,42.21
2018-07-25T10:27:55.550Z,41.16
2018-07-25T10:30:25.819Z,40.69
2018-07-25T10:32:56.196Z,41.75
2018-07-25T10:35:27.034Z,41.01
2018-07-25T10:37:57.193Z,42.07
2018-07-25T10:40:28.849Z,41.39
2018-07-25T10:42:58.882Z,41.94
2018-07-25T10:45:29.102Z,40.89
2018-07-25T10:47:59.268Z,41.72
2018-07-25T10:50:30.767Z,41.46
2018-07-25T10:53:01.912Z,41.32
2018-07-25T10:55:35.048Z,42.49
2018-07-25T10:58:05.205Z,41.87
2018-07-25T11:00:37.808Z,41.69
2018-07-25T11:03:08.332Z,42.71
2018-07-25T11:05:38.456Z,43.01
2018-07-25T11:08:08.504Z,42.62
2018-07-25T11:10:39.149Z,42.95
2018-07-25T11:13:09.883Z,43.45
2018-07-25T11:15:41.092Z,42.16
2018-07-25T11:18:13.129Z,42.47
2018-07-25T11:20:43.835Z,42.86
2018-07-25T11:23:17.024Z,41.69
2018-07-25T11:25:47.247Z,41.62
2018-07-25T11:28:17.519Z,42.37
2018-07-25T11:30:47.831Z,41.73
2018-07-25T11:33:18.831Z,44.34
2018-07-25T11:35:49.234Z,43.01
2018-07-25T11:38:19.405Z,45.10
2018-07-25T11:40:49.631Z,45.05
2018-07-25T11:43:22.263Z,44.38
2018-07-25T11:45:52.723Z,44.46
2018-07-25T11:48:25.714Z,44.06
2018-07-25T11:50:57.641Z,43.61
2018-07-25T11:53:28.072Z,42.01
2018-07-25T11:55:58.423Z,42.96
2018-07-25T11:58:34.641Z,43.79
2018-07-25T12:01:06.249Z,43.42
2018-07-25T12:03:37.027Z,43.56
2018-07-25T12:06:07.921Z,44.40
2018-07-25T12:08:40.959Z,43.68
2018-07-25T12:11:12.940Z,43.66
2018-07-25T12:13:43.263Z,42.89
2018-07-25T12:16:14.311Z,42.67
2018-07-25T12:18:48.708Z,42.91
2018-07-25T12:21:20.829Z,44.05
2018-07-25T12:23:50.861Z,44.59
2018-07-25T12:26:29.331Z,45.03
2018-07-25T12:29:00.524Z,44.54
2018-07-25T12:31:34.925Z,45.49
2018-07-25T12:34:08.386Z,45.46
2018-07-25T12:36:38.990Z,46.00
2018-07-25T12:39:10.746Z,45.16
2018-07-25T12:41:41.055Z,44.15
2018-07-25T12:44:11.289Z,43.86
2018-07-25T12:46:41.817Z,43.79
2018-07-25T12:49:12.396Z,43.83
2018-07-25T12:51:44.196Z,44.42
2018-07-25T12:54:15.872Z,42.87
2018-07-25T12:56:46.695Z,43.49
2018-07-25T12:59:18.043Z,42.90
2018-07-25T13:01:48.855Z,42.21
2018-07-25T13:04:19.367Z,42.98
2018-07-25T13:06:49.896Z,42.20
2018-07-25T13:09:20.346Z,43.20
2018-07-25T13:11:51.006Z,42.67
2018-07-25T13:14:21.991Z,42.30
2018-07-25T13:16:54.980Z,43.37
2018-07-25T13:19:27.827Z,43.25
2018-07-25T13:21:58.029Z,43.61
2018-07-25T13:24:28.688Z,42.73
2018-07-25T13:26:59.504Z,43.32
2018-07-25T13:29:31.755Z,43.21
2018-07-25T13:32:02.875Z,43.19
2018-07-25T13:34:35.919Z,44.02
2018-07-25T13:37:06.465Z,44.09
2018-07-25T13:39:36.448Z,44.69
2018-07-25T13:42:07.192Z,44.38
2018-07-25T13:44:37.370Z,43.43
2018-07-25T13:47:07.684Z,43.96
2018-07-25T13:49:37.826Z,42.24
2018-07-25T13:52:09.421Z,42.34
2018-07-25T13:54:41.745Z,44.03
2018-07-25T13:57:13.960Z,43.72
2018-07-25T13:59:43.807Z,43.47
2018-07-25T14:02:15.716Z,44.08
2018-07-25T14:04:51.649Z,44.00
2018-07-25T14:07:22.033Z,44.02
2018-07-25T14:09:52.753Z,43.50
2018-07-25T14:12:24.799Z,43.85
2018-07-25T14:14:55.955Z,43.67
2018-07-25T14:17:25.875Z,43.79
2018-07-25T14:19:55.707Z,44.31
2018-07-25T14:22:26.294Z,44.19
2018-07-25T14:24:56.715Z,44.47
2018-07-25T14:27:26.515Z,44.46
2018-07-25T14:29:57.653Z,44.57
2018-07-25T14:32:27.750Z,45.60
2018-07-25T14:34:57.890Z,43.81
2018-07-25T14:37:27.841Z,43.86
2018-07-25T14:39:57.822Z,43.39
2018-07-25T14:42:28.902Z,46.85
2018-07-25T14:45:02.818Z,48.56
2018-07-25T14:47:34.743Z,50.00
2018-07-25T14:50:05.843Z,51.06
2018-07-25T14:52:36.294Z,52.03
2018-07-25T14:55:07.845Z,51.56
2018-07-25T14:57:38.096Z,53.06
2018-07-25T15:00:09.012Z,53.93
2018-07-25T15:02:39.279Z,53.51
2018-07-25T15:05:09.751Z,53.14
2018-07-25T15:07:39.877Z,53.83
2018-07-25T15:10:10.632Z,53.93
2018-07-25T15:12:42.463Z,54.53
2018-07-25T15:15:13.024Z,54.15
2018-07-25T15:17:43.776Z,52.83
2018-07-25T15:20:15.013Z,53.51
2018-07-25T15:22:49.512Z,53.91
2018-07-25T15:25:22.324Z,53.05
2018-07-25T15:27:55.710Z,53.38
2018-07-25T15:30:26.016Z,55.08
2018-07-25T15:33:00.017Z,53.42
2018-07-25T15:35:30.127Z,52.95
2018-07-25T15:38:02.354Z,53.32
2018-07-25T15:40:32.524Z,53.96
2018-07-25T15:43:02.910Z,53.25
2018-07-25T15:45:32.774Z,53.89
2018-07-25T15:48:02.847Z,55.01
2018-07-25T15:50:33.000Z,57.99
2018-07-25T15:53:03.179Z,59.50
2018-07-25T15:55:34.817Z,60.06
2018-07-25T15:58:05.365Z,63.08
2018-07-25T16:00:35.621Z,62.87
2018-07-25T16:03:05.798Z,65.28
2018-07-25T16:05:36.304Z,64.47
2018-07-25T16:08:06.668Z,63.51
2018-07-25T16:10:37.961Z,63.94
2018-07-25T16:13:08.612Z,65.74
2018-07-25T16:15:39.089Z,65.48
2018-07-25T16:18:09.453Z,66.02
2018-07-25T16:20:39.738Z,66.59
2018-07-25T16:23:10.074Z,67.74
2018-07-25T16:25:41.774Z,68.92
2018-07-25T16:28:15.232Z,70.02
2018-07-25T16:30:45.705Z,67.91
2018-07-25T16:33:19.925Z,68.62
2018-07-25T16:35:51.833Z,69.64
2018-07-25T16:38:23.907Z,67.62
2018-07-25T16:40:54.439Z,69.11
2018-07-25T16:43:24.826Z,69.31
2018-07-25T16:45:55.164Z,67.91
2018-07-25T16:48:29.619Z,68.12
2018-07-25T16:51:00.009Z,69.20
2018-07-25T16:53:33.020Z,70.33
2018-07-25T16:56:08.643Z,69.27
2018-07-25T16:58:39.298Z,68.92
2018-07-25T17:01:11.424Z,69.22
2018-07-25T17:03:44.669Z,68.17
2018-07-25T17:06:24.289Z,67.16
2018-07-25T17:08:55.984Z,66.81
2018-07-25T17:11:28.256Z,66.48
2018-07-25T17:14:01.884Z,65.81
2018-07-25T17:16:32.459Z,64.93
2018-07-25T17:19:05.964Z,64.24
2018-07-25T17:21:36.724Z,63.23
2018-07-25T17:24:07.569Z,67.78
2018-07-25T17:26:41.800Z,64.04
2018-07-25T17:29:12.087Z,63.17
2018-07-25T17:31:44.351Z,63.44
2018-07-25T17:34:19.614Z,63.62
2018-07-25T17:36:50.518Z,63.67
2018-07-25T17:39:22.176Z,65.38
2018-07-25T17:41:53.214Z,63.25
2018-07-25T17:44:24.792Z,64.44
2018-07-25T17:46:55.876Z,65.92
2018-07-25T17:49:26.661Z,66.34
2018-07-25T17:52:00.939Z,64.87
2018-07-25T17:54:32.224Z,63.37
2018-07-25T17:57:03.229Z,63.02
2018-07-25T17:59:33.901Z,61.82
2018-07-25T18:02:06.223Z,62.38
2018-07-25T18:04:37.932Z,62.18
2018-07-25T18:07:09.491Z,61.16
2018-07-25T18:09:40.112Z,62.65
2018-07-25T18:12:12.180Z,58.48
2018-07-25T18:14:42.067Z,58.25
2018-07-25T18:17:13.154Z,57.33
2018-07-25T18:19:43.776Z,57.44
2018-07-25T18:22:14.497Z,56.74
2018-07-25T18:24:45.013Z,56.45
2018-07-25T18:27:15.939Z,57.41
2018-07-25T18:29:47.493Z,57.39
2018-07-25T18:32:18.125Z,55.86
2018-07-25T18:34:48.617Z,56.99
2018-07-25T18:37:19.948Z,57.51
2018-07-25T18:39:50.774Z,57.48
2018-07-25T18:42:21.921Z,57.17
2018-07-25T18:44:53.051Z,56.92
2018-07-25T18:47:23.316Z,56.78
2018-07-25T18:49:53.311Z,56.94
2018-07-25T18:52:23.604Z,57.72
2018-07-25T18:54:54.556Z,56.68
2018-07-25T18:57:24.637Z,57.98
2018-07-25T18:59:54.970Z,57.06
2018-07-25T19:02:25.182Z,55.63
2018-07-25T19:04:55.205Z,54.76
2018-07-25T19:07:25.478Z,55.21
2018-07-25T19:09:56.256Z,55.89
2018-07-25T19:12:26.433Z,57.75
2018-07-25T19:15:01.677Z,57.76
2018-07-25T19:17:32.145Z,57.75
2018-07-25T19:20:02.645Z,58.24
2018-07-25T19:22:32.889Z,57.54
2018-07-25T19:25:03.626Z,56.90
2018-07-25T19:27:33.937Z,57.77
2018-07-25T19:30:04.564Z,59.07
2018-07-25T19:32:35.730Z,58.56
2018-07-25T19:35:08.518Z,59.27
2018-07-25T19:37:38.686Z,58.51
2018-07-25T19:40:08.857Z,57.54
2018-07-25T19:42:38.982Z,56.87
2018-07-25T19:45:09.922Z,57.83
2018-07-25T19:47:40.837Z,57.80
2018-07-25T19:50:11.776Z,57.87
2018-07-25T19:52:42.573Z,58.08
2018-07-25T19:55:13.360Z,56.58
2018-07-25T19:57:43.529Z,58.91
2018-07-25T20:00:16.550Z,58.05
2018-07-25T20:02:44.444Z,58.35
2018-07-25T20:05:17.821Z,58.66
2018-07-25T20:07:47.996Z,59.40
2018-07-25T20:10:21.990Z,60.00
2018-07-25T20:12:52.871Z,60.07
2018-07-25T20:15:27.828Z,60.47
2018-07-25T20:17:58.309Z,60.42
2018-07-25T20:20:28.650Z,60.40
2018-07-25T20:23:01.169Z,61.22
2018-07-25T20:25:32.820Z,62.08
2018-07-25T20:28:03.057Z,62.77
2018-07-25T20:30:33.153Z,63.25
2018-07-25T20:33:03.220Z,64.13
2018-07-25T20:35:33.429Z,65.17
2018-07-25T20:38:03.728Z,65.33
2018-07-25T20:40:33.905Z,64.50
2018-07-25T20:43:04.381Z,64.50
2018-07-25T20:45:34.501Z,65.99
2018-07-25T20:48:04.860Z,65.28
2018-07-25T20:50:35.253Z,65.95
2018-07-25T20:53:06.747Z,66.54
2018-07-25T20:55:36.995Z,65.64
2018-07-25T20:58:07.078Z,65.82
2018-07-25T21:00:37.676Z,66.75
2018-07-25T21:03:08.661Z,65.53
2018-07-25T21:05:39.315Z,66.10
2018-07-25T21:08:09.752Z,66.37
2018-07-25T21:10:40.514Z,66.54
2018-07-25T21:13:11.790Z,67.17
2018-07-25T21:15:43.993Z,68.01
2018-07-25T21:18:14.440Z,68.16
2018-07-25T21:20:46.905Z,68.32
2018-07-25T21:23:18.166Z,66.95
2018-07-25T21:25:49.112Z,68.70
2018-07-25T21:28:19.510Z,68.52
2018-07-25T21:30:50.266Z,68.23
2018-07-25T21:33:21.699Z,68.07
2018-07-25T21:35:51.796Z,67.39
2018-07-25T21:38:23.536Z,68.05
2018-07-25T21:40:55.087Z,69.04
2018-07-25T21:43:25.691Z,69.78
2018-07-25T21:45:56.437Z,69.65
2018-07-25T21:48:30.199Z,70.03
2018-07-25T21:51:05.268Z,69.75
2018-07-25T21:53:37.170Z,68.68
2018-07-25T21:56:09.942Z,69.52
2018-07-25T21:58:40.366Z,69.62
2018-07-25T22:01:18.001Z,69.45
2018-07-25T22:03:49.317Z,69.41
2018-07-25T22:06:19.984Z,68.65
2018-07-25T22:08:51.055Z,68.47
2018-07-25T22:11:21.826Z,67.89
2018-07-25T22:13:57.205Z,68.22
2018-07-25T22:16:28.203Z,67.52
2018-07-25T22:19:04.002Z,68.43
2018-07-25T22:21:34.460Z,67.95
2018-07-25T22:24:04.575Z,68.41
2018-07-25T22:26:35.525Z,67.79
2018-07-25T22:29:05.664Z,67.29
2018-07-25T22:31:36.176Z,67.99
2018-07-25T22:34:09.227Z,68.80
2018-07-25T22:36:39.255Z,68.41
2018-07-25T22:39:10.913Z,67.37
2018-07-25T22:41:41.039Z,68.24
2018-07-25T22:44:11.135Z,68.30
2018-07-25T22:46:41.155Z,68.70
2018-07-25T22:49:48.123Z,68.14
2018-07-25T22:52:18.199Z,69.49
2018-07-25T22:54:50.409Z,69.16
2018-07-25T22:57:20.374Z,69.96
2018-07-25T22:59:51.324Z,70.17
2018-07-25T23:02:21.736Z,70.25
2018-07-25T23:04:51.931Z,69.75
2018-07-25T23:07:21.952Z,69.45
2018-07-25T23:09:51.856Z,70.16
2018-07-25T23:12:23.153Z,70.38
2018-07-25T23:14:53.221Z,68.92
2018-07-25T23:17:23.512Z,69.55
2018-07-25T23:19:53.577Z,70.78
2018-07-25T23:22:23.679Z,71.27
2018-07-25T23:24:53.922Z,71.94
2018-07-25T23:27:24.024Z,72.34
2018-07-25T23:29:53.884Z,71.10
2018-07-25T23:32:24.125Z,71.54
2018-07-25T23:34:54.035Z,71.48
2018-07-25T23:37:24.085Z,71.37
2018-07-25T23:39:54.272Z,69.82
2018-07-25T23:42:24.283Z,68.34
2018-07-25T23:44:54.420Z,69.00
2018-07-25T23:47:24.571Z,68.10
2018-07-25T23:49:54.580Z,67.97
2018-07-25T23:52:24.685Z,68.56
2018-07-25T23:54:54.769Z,67.32
2018-07-25T23:57:24.976Z,67.49
2018-07-25T23:59:55.170Z,67.23
